This is the latest recevied weather packets stored in our database for station/object OE-11272. If no packets are shown the sender has not sent any weather packets the latest 10 day(s).
| Time | Temp. | Humidity | Pressure | Rain* | Wind** | Luminosity | Snow |
|---|---|---|---|---|---|---|---|
| 1787936725 | 27.22° C | 61% | 1008.5 hPa | 0 mm | - | 37 W/m² | - |
| 1787936125 | 28.33° C | 54% | 1008.3 hPa | 0 mm | - | 44 W/m² | - |
| 1787935299 | 27.78° C | 58% | 1008.3 hPa | 0 mm | - | 56 W/m² | - |
| 1787934926 | 28.33° C | 58% | 1008.2 hPa | 0 mm | - | 75 W/m² | - |
| 1787934326 | 29.44° C | 49% | 1007.9 hPa | 0 mm | - | 100 W/m² | - |
| 1787933499 | 29.44° C | 54% | 1008.1 hPa | 0 mm | - | 112 W/m² | - |
| 1787933126 | 30° C | 45% | 1007.8 hPa | 0 mm | - | 119 W/m² | - |
| 1787932526 | 30.56° C | 50% | 1007.7 hPa | 0 mm | - | 112 W/m² | - |
| 1787931699 | 31.11° C | 47% | 1007.8 hPa | 0 mm | - | 150 W/m² | - |
| 1787931326 | 32.78° C | 39% | 1007.6 hPa | 0 mm | - | 281 W/m² | - |
| 1787930726 | 32.22° C | 46% | 1007.7 hPa | 0 mm | - | 362 W/m² | - |
| 1787929899 | 33.33° C | 38% | 1007.4 hPa | 0 mm | - | 406 W/m² | - |
| 1787929525 | 33.33° C | 43% | 1007.6 hPa | 0 mm | - | 418 W/m² | - |
| 1787928925 | 33.33° C | 38% | 1007.7 hPa | 0 mm | - | 437 W/m² | - |
| 1787928099 | 33.89° C | 34% | 1008.1 hPa | 0 mm | - | 518 W/m² | - |
| 1787927725 | 33.89° C | 32% | 1008.2 hPa | 0 mm | - | 500 W/m² | - |
| 1787927125 | 33.33° C | 36% | 1008.2 hPa | 0 mm | - | 518 W/m² | - |
| 1787926299 | 32.78° C | 42% | 1008.2 hPa | 0 mm | - | 531 W/m² | - |
| 1787925926 | 32.78° C | 47% | 1008.5 hPa | 0 mm | - | 537 W/m² | - |
| 1787925326 | 32.22° C | 46% | 1008.5 hPa | 0 mm | - | 431 W/m² | - |
| 1787924499 | 31.67° C | 52% | 1008.8 hPa | 0 mm | - | 525 W/m² | - |
| 1787924126 | 31.67° C | 50% | 1008.8 hPa | 0 mm | - | 512 W/m² | - |
| 1787923526 | 31.67° C | 50% | 1009.2 hPa | 0 mm | - | 606 W/m² | - |
| 1787922697 | 31.11° C | 55% | 1009.3 hPa | 0 mm | - | 668 W/m² | - |
| 1787922325 | 30.56° C | 53% | 1009.4 hPa | 0 mm | - | 587 W/m² | - |
* Rain latest hour (hover to see other rain measurements)
** Current wind speed in m/s (hover to see current wind gust speed)